.
WxDataArchive / Data Records for 2006-01-17
2006-01-16 January 2006 2006-01-18

Data Records for Tuesday, 17 January 2006

Time	Temp	Chill	HIndex	Humid	Dewpt	 Wind 	HiWind	WindDir	Rain 	Barom 
-----	----	-----	------	-----	-----	------	------	-------	-----	----- 
00:00	32.7	32.7	32.7	83	28.1	1	4	90	0.00	29.657 
00:05	32.8	32.8	32.8	83	28.2	1	3	90	0.00	29.657 
00:10	32.8	32.8	32.8	83	28.2	1	4	90	0.00	29.657 
00:15	32.8	32.8	32.8	83	28.2	1	3	90	0.00	29.655 
00:20	32.8	32.8	32.8	83	28.2	1	3	90	0.00	29.655 
00:25	32.8	32.8	32.8	83	28.2	2	4	90	0.00	29.655 
00:30	32.8	32.8	32.8	83	28.2	2	4	112	0.00	29.652 
00:35	32.8	32.8	32.8	83	28.2	2	6	90	0.00	29.652 
00:40	32.9	32.9	32.9	83	28.3	2	6	112	0.00	29.652 
00:45	32.9	32.9	32.9	83	28.3	2	4	112	0.00	29.639 
00:50	32.9	32.9	32.9	83	28.3	2	5	112	0.00	29.639 
00:55	32.9	32.9	32.9	83	28.3	3	5	112	0.00	29.639 
01:00	32.9	32.9	32.9	83	28.3	3	5	112	0.00	29.635 
01:05	32.9	32.9	32.9	83	28.3	2	5	90	0.00	29.635 
01:10	32.9	32.9	32.9	84	28.6	2	5	112	0.00	29.635 
01:15	32.9	32.9	32.9	84	28.6	2	5	90	0.00	29.634 
01:20	32.9	32.9	32.9	84	28.6	1	4	112	0.00	29.634 
01:25	32.9	32.9	32.9	84	28.6	1	4	112	0.00	29.634 
01:30	32.9	32.9	32.9	84	28.6	1	3	112	0.00	29.635 
01:35	33.1	33.1	33.1	84	28.8	2	4	112	0.00	29.635 
01:40	33.1	33.1	33.1	84	28.8	1	3	112	0.00	29.635 
01:45	33.1	33.1	33.1	84	28.8	2	5	68	0.00	29.617 
01:50	33.2	33.2	33.2	84	28.9	2	5	90	0.00	29.617 
01:55	33.2	33.2	33.2	84	28.9	2	5	112	0.00	29.617 
02:00	33.2	33.2	33.2	84	28.9	2	5	112	0.00	29.618 
02:05	33.2	33.2	33.2	84	28.9	1	4	112	0.00	29.618 
02:10	33.4	33.4	33.4	84	29.1	2	5	90	0.00	29.618 
02:15	33.4	33.4	33.4	84	29.1	3	9	90	0.00	29.623 
02:20	33.5	33.5	33.5	84	29.2	2	5	112	0.00	29.623 
02:25	33.5	33.5	33.5	84	29.2	2	5	90	0.00	29.623 
02:30	33.5	33.5	33.5	84	29.2	1	3	90	0.00	29.624 
02:35	33.7	33.7	33.7	84	29.4	1	3	90	0.00	29.624 
02:40	33.7	33.7	33.7	84	29.4	2	5	112	0.00	29.624 
02:45	33.7	33.7	33.7	84	29.4	2	4	112	0.00	29.622 
02:50	33.8	33.8	33.8	84	29.5	1	3	68	0.00	29.622 
02:55	33.8	33.8	33.8	84	29.5	1	5	90	0.00	29.622 
03:00	34.0	34.0	34.0	84	29.7	2	6	90	0.00	29.622 
03:05	34.0	34.0	34.0	84	29.7	1	4	112	0.00	29.622 
03:10	34.1	34.1	34.1	84	29.8	1	5	90	0.00	29.622 
03:15	34.1	34.1	34.1	84	29.8	2	5	112	0.00	29.623 
03:20	34.3	34.3	34.3	84	30.0	1	3	90	0.00	29.623 
03:25	34.3	34.3	34.3	84	30.0	2	5	112	0.00	29.623 
03:30	34.3	34.3	34.3	85	30.3	3	6	112	0.00	29.614 
03:35	34.3	34.3	34.3	86	30.6	2	4	90	0.00	29.614 
03:40	34.3	34.3	34.3	87	30.8	1	3	90	0.00	29.614 
03:45	34.3	34.3	34.3	87	30.8	1	5	112	0.00	29.608 
03:50	34.3	34.3	34.3	87	30.8	2	4	90	0.00	29.608 
03:55	34.3	34.3	34.3	88	31.1	0	2	68	0.00	29.608 
04:00	34.3	34.3	34.3	88	31.1	1	3	68	0.00	29.604 
04:05	34.3	34.3	34.3	88	31.1	1	4	90	0.01	29.604 
04:10	34.3	34.3	34.3	88	31.1	1	3	112	0.00	29.604 
04:15	34.3	34.3	34.3	89	31.4	1	3	90	0.00	29.600 
04:20	34.3	34.3	34.3	89	31.4	1	3	112	0.00	29.600 
04:25	34.3	34.3	34.3	90	31.7	1	3	112	0.00	29.600 
04:30	34.3	34.3	34.3	90	31.7	2	3	112	0.00	29.603 
04:35	34.3	34.3	34.3	90	31.7	1	4	90	0.00	29.603 
04:40	34.3	34.3	34.3	90	31.7	2	4	90	0.01	29.603 
04:45	34.3	34.3	34.3	91	32.0	1	4	90	0.00	29.596 
04:50	34.3	34.3	34.3	91	32.0	2	6	112	0.00	29.596 
04:55	34.3	34.3	34.3	91	32.0	2	4	112	0.00	29.596 
05:00	34.3	34.3	34.3	91	32.0	2	4	112	0.00	29.591 
05:05	34.3	34.3	34.3	92	32.2	2	5	90	0.01	29.591 
05:10	34.3	34.3	34.3	92	32.2	2	4	90	0.00	29.591 
05:15	34.3	34.3	34.3	92	32.2	2	4	90	0.00	29.584 
05:20	34.3	34.3	34.3	92	32.2	2	5	90	0.01	29.584 
05:25	34.3	34.3	34.3	92	32.2	1	4	90	0.00	29.584 
05:30	34.4	34.4	34.4	92	32.3	1	3	90	0.00	29.583 
05:35	34.4	34.4	34.4	92	32.3	2	4	90	0.01	29.583 
05:40	34.4	34.4	34.4	92	32.3	1	4	90	0.00	29.583 
05:45	34.6	34.6	34.6	93	32.8	2	3	90	0.00	29.575 
05:50	34.6	34.6	34.6	93	32.8	1	4	90	0.01	29.575 
05:55	34.7	34.7	34.7	93	32.9	1	2	90	0.00	29.575 
06:00	34.7	34.7	34.7	93	32.9	1	3	90	0.00	29.563 
06:05	34.7	34.7	34.7	93	32.9	1	2	68	0.00	29.563 
06:10	34.7	34.7	34.7	93	32.9	1	2	68	0.00	29.563 
06:15	34.9	34.9	34.9	93	33.1	1	2	68	0.00	29.548 
06:20	34.7	34.7	34.7	93	32.9	1	2	90	0.00	29.548 
06:25	34.7	34.7	34.7	93	32.9	1	3	68	0.01	29.548 
06:30	34.7	34.7	34.7	93	32.9	1	4	90	0.00	29.551 
06:35	34.7	34.7	34.7	93	32.9	1	2	112	0.00	29.551 
06:40	34.9	34.9	34.9	93	33.1	1	4	112	0.00	29.551 
06:45	34.9	34.9	34.9	94	33.4	2	4	90	0.01	29.552 
06:50	34.9	34.9	34.9	94	33.4	2	5	112	0.00	29.552 
06:55	34.9	34.9	34.9	94	33.4	3	6	112	0.01	29.552 
07:00	34.9	34.9	34.9	94	33.4	1	4	90	0.01	29.548 
07:05	34.9	34.9	34.9	94	33.4	2	4	112	0.00	29.548 
07:10	34.9	34.9	34.9	94	33.4	1	2	90	0.01	29.548 
07:15	35.0	35.0	35.0	94	33.5	1	2	112	0.00	29.535 
07:20	35.0	35.0	35.0	94	33.5	0	2	90	0.00	29.535 
07:25	35.3	35.3	35.3	94	33.7	1	2	90	0.01	29.535 
07:30	35.5	35.5	35.5	94	33.9	1	4	90	0.00	29.531 
07:35	35.5	35.5	35.5	94	33.9	2	4	112	0.01	29.531 
07:40	35.5	35.5	35.5	94	33.9	1	3	112	0.00	29.531 
07:45	35.5	35.5	35.5	94	33.9	1	2	112	0.01	29.531 
07:50	35.5	35.5	35.5	94	33.9	0	2	112	0.01	29.531 
07:55	35.6	35.6	35.6	94	34.0	0	1	112	0.01	29.531 
08:00	35.6	35.6	35.6	94	34.0	1	2	112	0.01	29.523 
08:05	35.8	35.8	35.8	94	34.2	0	2	90	0.01	29.523 
08:10	35.9	35.9	35.9	94	34.3	1	3	112	0.00	29.523 
08:15	36.0	36.0	36.0	95	34.7	2	3	112	0.01	29.510 
08:20	36.2	36.2	36.2	95	34.9	1	3	112	0.00	29.510 
08:25	36.3	36.3	36.3	95	35.0	1	3	112	0.01	29.510 
08:30	36.5	36.5	36.5	95	35.2	0	1	90	0.00	29.511 
08:35	36.5	36.5	36.5	95	35.2	0	2	112	0.00	29.511 
08:40	36.8	36.8	36.8	95	35.5	1	3	112	0.01	29.511 
08:45	36.9	36.9	36.9	95	35.6	0	1	90	0.00	29.502 
08:50	37.0	37.0	37.0	95	35.7	1	3	90	0.01	29.502 
08:55	37.2	37.2	37.2	95	35.9	1	3	90	0.00	29.502 
09:00	37.3	37.3	37.3	95	36.0	1	3	112	0.01	29.498 
09:05	37.3	37.3	37.3	95	36.0	0	2	90	0.01	29.498 
09:10	37.5	37.5	37.5	95	36.2	0	2	90	0.01	29.498 
09:15	37.6	37.6	37.6	95	36.3	0	2	90	0.03	29.500 
09:20	37.8	37.8	37.8	95	36.5	1	2	90	0.01	29.500 
09:25	37.8	37.8	37.8	95	36.5	0	2	112	0.00	29.500 
09:30	37.9	37.9	37.9	95	36.6	0	1	112	0.01	29.485 
09:35	38.0	38.0	38.0	95	36.7	1	2	112	0.02	29.485 
09:40	38.2	38.2	38.2	95	36.9	1	4	112	0.01	29.485 
09:45	38.2	38.2	38.2	95	36.9	0	2	45	0.00	29.473 
09:50	38.3	38.3	38.3	95	37.0	1	2	68	0.01	29.473 
09:55	38.5	38.5	38.5	95	37.2	1	3	68	0.00	29.473 
10:00	38.6	38.6	38.6	95	37.3	1	2	68	0.01	29.469 
10:05	38.9	38.9	38.9	95	37.6	1	3	90	0.00	29.469 
10:10	39.2	39.2	39.2	95	37.9	1	2	68	0.00	29.469 
10:15	39.3	39.3	39.3	95	38.0	1	4	90	0.01	29.460 
10:20	39.6	39.6	39.6	95	38.3	1	3	90	0.00	29.460 
10:25	39.8	39.8	39.8	95	38.5	1	4	112	0.00	29.460 
10:30	39.8	39.8	39.8	95	38.5	1	3	112	0.00	29.453 
10:35	39.9	39.9	39.9	95	38.6	1	3	68	0.00	29.453 
10:40	39.9	39.9	39.9	95	38.6	1	2	45	0.00	29.453 
10:45	40.1	40.1	40.1	95	38.8	1	2	68	0.01	29.446 
10:50	40.1	40.1	40.1	95	38.8	1	3	68	0.00	29.446 
10:55	40.1	40.1	40.1	95	38.8	0	1	90	0.01	29.446 
11:00	40.2	40.2	40.2	95	38.9	1	3	112	0.00	29.432 
11:05	40.3	40.3	40.3	96	39.3	0	1	112	0.01	29.432 
11:10	40.5	40.5	40.5	96	39.5	0	2	112	0.00	29.432 
11:15	40.6	40.6	40.6	96	39.5	0	1	112	0.01	29.419 
11:20	40.8	40.8	40.8	96	39.7	0	2	112	0.00	29.419 
11:25	40.8	40.8	40.8	96	39.7	0	2	90	0.01	29.419 
11:30	40.8	40.8	40.8	96	39.7	0	1	90	0.00	29.408 
11:35	40.8	40.8	40.8	96	39.7	0	1	90	0.00	29.408 
11:40	40.9	40.9	40.9	96	39.8	0	1	90	0.01	29.408 
11:45	41.1	41.1	41.1	96	40.0	0	1	90	0.00	29.387 
11:50	41.1	41.1	41.1	96	40.0	0	1	90	0.00	29.387 
11:55	41.1	41.1	41.1	96	40.0	0	0	---	0.00	29.387 
12:00	41.1	41.1	41.1	96	40.0	0	2	90	0.01	29.376 
12:05	41.2	41.2	41.2	96	40.1	0	2	90	0.00	29.376 
12:10	41.2	41.2	41.2	96	40.1	0	2	90	0.00	29.376 
12:15	41.2	41.2	41.2	96	40.1	0	2	90	0.00	29.369 
12:20	41.1	41.1	41.1	96	40.0	0	1	90	0.00	29.369 
12:25	41.1	41.1	41.1	96	40.0	0	2	90	0.00	29.369 
12:30	41.1	41.1	41.1	96	40.0	0	1	90	0.00	29.369 
12:35	41.1	41.1	41.1	96	40.0	0	2	45	0.00	29.369 
12:40	40.9	40.9	40.9	95	39.6	1	2	315	0.00	29.369 
12:45	40.9	40.9	40.9	96	39.8	0	1	315	0.00	29.376 
12:50	41.1	41.1	41.1	96	40.0	0	1	315	0.01	29.376 
12:55	40.9	40.9	40.9	96	39.8	0	1	315	0.00	29.376 
13:00	40.9	40.9	40.9	96	39.8	0	4	315	0.00	29.368 
13:05	41.1	38.6	41.1	96	40.0	4	11	270	0.01	29.368 
13:10	41.1	41.1	41.1	96	40.0	2	6	270	0.01	29.368 
13:15	41.1	41.1	41.1	96	40.0	1	2	292	0.00	29.355 
13:20	41.1	41.1	41.1	96	40.0	1	2	292	0.00	29.355 
13:25	41.2	41.2	41.2	96	40.1	0	1	292	0.00	29.355 
13:30	41.3	41.3	41.3	96	40.2	1	2	292	0.00	29.354 
13:35	41.5	41.5	41.5	96	40.4	1	4	225	0.00	29.354 
13:40	41.5	41.5	41.5	96	40.4	0	2	225	0.00	29.354 
13:45	41.6	41.6	41.6	96	40.5	0	1	270	0.00	29.341 
13:50	41.8	41.8	41.8	96	40.7	0	2	270	0.00	29.341 
13:55	41.9	41.9	41.9	96	40.8	0	1	270	0.00	29.341 
14:00	42.1	42.1	42.1	96	41.0	0	2	270	0.00	29.338 
14:05	42.1	42.1	42.1	96	41.0	1	2	248	0.00	29.338 
14:10	42.2	42.2	42.2	96	41.1	0	3	248	0.00	29.338 
14:15	42.2	42.2	42.2	96	41.1	1	2	248	0.00	29.332 
14:20	42.3	42.3	42.3	96	41.2	2	5	248	0.00	29.332 
14:25	42.3	42.3	42.3	96	41.2	3	7	248	0.00	29.332 
14:30	42.3	42.3	42.3	96	41.2	2	9	270	0.00	29.361 
14:35	42.3	42.3	42.3	95	41.0	3	5	292	0.00	29.361 
14:40	41.8	39.4	41.8	95	40.5	4	12	270	0.00	29.361 
14:45	41.2	38.7	41.2	95	39.9	4	11	270	0.00	29.367 
14:50	40.8	38.2	40.8	95	39.5	4	11	270	0.00	29.367 
14:55	40.3	36.8	40.3	94	38.7	5	15	270	0.00	29.367 
15:00	39.9	37.2	39.9	94	38.3	4	9	270	0.00	29.373 
15:05	39.3	36.5	39.3	93	37.4	4	7	270	0.00	29.373 
15:10	38.9	38.9	38.9	93	37.1	3	7	270	0.00	29.373 
15:15	38.6	38.6	38.6	93	36.8	3	7	270	0.00	29.345 
15:20	38.3	38.3	38.3	93	36.5	3	6	270	0.00	29.345 
15:25	38.3	38.3	38.3	93	36.5	2	4	270	0.00	29.345 
15:30	38.0	38.0	38.0	93	36.2	2	6	270	0.00	29.360 
15:35	37.9	37.9	37.9	93	36.1	3	6	270	0.00	29.360 
15:40	37.8	34.8	37.8	92	35.7	4	10	270	0.00	29.360 
15:45	37.6	37.6	37.6	92	35.5	3	7	270	0.00	29.405 
15:50	37.6	37.6	37.6	92	35.5	3	5	270	0.00	29.405 
15:55	37.6	37.6	37.6	91	35.2	2	6	270	0.00	29.405 
16:00	37.6	37.6	37.6	91	35.2	2	4	270	0.00	29.397 
16:05	37.6	37.6	37.6	91	35.2	2	6	270	0.00	29.397 
16:10	37.5	37.5	37.5	91	35.1	2	5	270	0.00	29.397 
16:15	37.3	37.3	37.3	91	34.9	2	4	270	0.00	29.394 
16:20	37.3	37.3	37.3	91	34.9	2	4	248	0.00	29.394 
16:25	37.2	37.2	37.2	91	34.8	2	9	270	0.00	29.394 
16:30	37.0	37.0	37.0	91	34.6	3	6	270	0.00	29.421 
16:35	36.9	36.9	36.9	91	34.5	2	5	248	0.00	29.421 
16:40	36.8	36.8	36.8	91	34.4	3	6	270	0.00	29.421 
16:45	36.8	36.8	36.8	91	34.4	3	6	270	0.00	29.404 
16:50	36.8	36.8	36.8	91	34.4	2	5	270	0.00	29.404 
16:55	36.8	36.8	36.8	91	34.4	3	7	270	0.00	29.404 
17:00	36.6	36.6	36.6	91	34.2	3	7	270	0.00	29.411 
17:05	36.6	36.6	36.6	91	34.2	2	5	248	0.00	29.411 
17:10	36.6	36.6	36.6	91	34.2	1	3	270	0.00	29.411 
17:15	36.6	36.6	36.6	91	34.2	2	5	270	0.01	29.425 
17:20	36.6	36.6	36.6	91	34.2	2	4	270	0.00	29.425 
17:25	36.6	36.6	36.6	91	34.2	2	4	270	0.00	29.425 
17:30	36.5	36.5	36.5	91	34.1	2	6	270	0.00	29.422 
17:35	36.5	36.5	36.5	92	34.4	1	3	248	0.01	29.422 
17:40	36.5	36.5	36.5	92	34.4	3	8	270	0.00	29.422 
17:45	36.3	36.3	36.3	92	34.2	3	6	270	0.00	29.435 
17:50	36.3	36.3	36.3	92	34.2	2	4	248	0.01	29.435 
17:55	36.2	36.2	36.2	92	34.1	1	3	270	0.00	29.435 
18:00	36.2	36.2	36.2	92	34.1	1	3	248	0.01	29.434 
18:05	36.2	36.2	36.2	92	34.1	2	5	248	0.00	29.434 
18:10	36.0	36.0	36.0	92	33.9	2	7	248	0.00	29.434 
18:15	36.0	36.0	36.0	92	33.9	2	5	248	0.01	29.452 
18:20	35.9	35.9	35.9	92	33.8	2	4	248	0.00	29.452 
18:25	35.9	35.9	35.9	92	33.8	2	7	270	0.00	29.452 
18:30	35.8	35.8	35.8	92	33.7	2	4	270	0.00	29.462 
18:35	35.6	35.6	35.6	92	33.5	2	5	248	0.01	29.462 
18:40	35.3	35.3	35.3	91	32.9	2	11	248	0.00	29.462 
18:45	35.0	35.0	35.0	91	32.6	2	5	270	0.00	29.452 
18:50	34.7	34.7	34.7	91	32.3	2	5	270	0.00	29.452 
18:55	34.6	34.6	34.6	91	32.2	1	3	270	0.00	29.452 
19:00	34.4	34.4	34.4	92	32.3	2	4	270	0.00	29.449 
19:05	34.4	34.4	34.4	92	32.3	1	3	270	0.01	29.449 
19:10	34.3	34.3	34.3	92	32.2	2	5	248	0.00	29.449 
19:15	34.4	34.4	34.4	92	32.3	2	6	248	0.00	29.455 
19:20	34.4	34.4	34.4	92	32.3	2	6	248	0.00	29.455 
19:25	34.4	34.4	34.4	92	32.3	2	4	248	0.00	29.455 
19:30	34.4	34.4	34.4	92	32.3	2	5	248	0.00	29.470 
19:35	34.4	34.4	34.4	92	32.3	2	4	248	0.00	29.470 
19:40	34.4	34.4	34.4	92	32.3	3	11	270	0.00	29.470 
19:45	34.4	34.4	34.4	92	32.3	3	10	270	0.00	29.477 
19:50	34.3	30.7	34.3	92	32.2	4	10	248	0.00	29.477 
19:55	34.0	30.4	34.0	91	31.7	4	10	248	0.01	29.477 
20:00	33.5	29.8	33.5	91	31.2	4	11	270	0.00	29.470 
20:05	33.4	33.4	33.4	92	31.3	3	11	248	0.00	29.470 
20:10	33.2	29.5	33.2	92	31.1	4	10	270	0.00	29.470 
20:15	33.1	33.1	33.1	92	31.0	3	10	248	0.00	29.479 
20:20	33.1	33.1	33.1	92	31.0	3	7	248	0.00	29.479 
20:25	33.1	29.3	33.1	92	31.0	4	11	248	0.00	29.479 
20:30	33.1	29.3	33.1	92	31.0	4	11	248	0.00	29.487 
20:35	32.9	32.9	32.9	92	30.8	3	7	270	0.00	29.487 
20:40	32.9	32.9	32.9	92	30.8	2	7	248	0.00	29.487 
20:45	32.8	32.8	32.8	92	30.7	3	9	248	0.00	29.477 
20:50	32.7	32.7	32.7	92	30.6	3	10	248	0.00	29.477 
20:55	32.7	32.7	32.7	92	30.6	3	7	270	0.00	29.477 
21:00	32.5	32.5	32.5	92	30.4	3	7	270	0.00	29.451 
21:05	32.5	32.5	32.5	92	30.4	2	5	270	0.00	29.451 
21:10	32.5	32.5	32.5	92	30.4	2	8	270	0.00	29.451 
21:15	32.5	32.5	32.5	92	30.4	2	6	248	0.00	29.452 
21:20	32.4	32.4	32.4	92	30.3	2	6	248	0.00	29.452 
21:25	32.4	32.4	32.4	92	30.3	2	5	270	0.00	29.452 
21:30	32.4	32.4	32.4	92	30.3	2	6	270	0.00	29.456 
21:35	32.4	32.4	32.4	92	30.3	2	4	270	0.00	29.456 
21:40	32.4	32.4	32.4	92	30.3	2	4	270	0.00	29.456 
21:45	32.4	32.4	32.4	92	30.3	2	4	270	0.00	29.438 
21:50	32.4	32.4	32.4	92	30.3	2	4	270	0.00	29.438 
21:55	32.2	32.2	32.2	92	30.1	3	5	270	0.00	29.438 
22:00	32.2	32.2	32.2	92	30.1	2	7	270	0.00	29.440 
22:05	32.1	32.1	32.1	92	30.0	3	7	248	0.00	29.440 
22:10	32.1	32.1	32.1	92	30.0	2	5	248	0.00	29.440 
22:15	31.8	31.8	31.8	92	29.7	2	10	270	0.00	29.454 
22:20	31.8	31.8	31.8	92	29.7	3	10	270	0.00	29.454 
22:25	31.6	31.6	31.6	92	29.5	2	5	248	0.00	29.454 
22:30	31.6	31.6	31.6	92	29.5	2	6	270	0.00	29.454 
22:35	31.6	31.6	31.6	93	29.8	3	11	248	0.00	29.454 
22:40	31.5	31.5	31.5	92	29.4	3	8	270	0.00	29.454 
22:45	31.5	31.5	31.5	93	29.7	3	7	248	0.00	29.456 
22:50	31.3	31.3	31.3	92	29.3	3	7	248	0.00	29.456 
22:55	31.2	27.2	31.2	92	29.2	4	15	270	0.00	29.456 
23:00	31.0	31.0	31.0	92	29.0	3	7	270	0.00	29.458 
23:05	31.0	31.0	31.0	92	29.0	3	7	270	0.00	29.458 
23:10	30.9	30.9	30.9	92	28.9	3	9	270	0.00	29.458 
23:15	30.7	30.7	30.7	92	28.7	3	7	270	0.00	29.454 
23:20	30.6	30.6	30.6	92	28.6	3	10	270	0.00	29.454 
23:25	30.6	30.6	30.6	92	28.6	2	7	270	0.00	29.454 
23:30	30.6	30.6	30.6	92	28.6	2	5	248	0.00	29.455 
23:35	30.6	30.6	30.6	92	28.6	3	9	270	0.00	29.455 
23:40	30.6	30.6	30.6	92	28.6	2	10	270	0.00	29.455 
23:45	30.4	30.4	30.4	92	28.4	2	7	248	0.00	29.457 
23:50	30.4	30.4	30.4	92	28.4	2	4	248	0.00	29.457 
23:55	30.3	30.3	30.3	92	28.3	2	4	270	0.00	29.457 

CoCoRaHS
IN-AL-39
A2 Web Hosting
Creative Commons License
GoDaddy
Look for:

loaded 2017-12-13 15:46:58 • last modified 2010-11-18 10:43:29
Privacy PolicyDisclaimer
• wx.awcolley.com is powered by PmWiki v.2002016 •
• all content (unless otherwise noted) © 2017 A W Colley